createdAt,value
2022-11-30T00:00:43.324Z,5.65
2022-11-30T00:03:11.130Z,6.25
2022-11-30T00:05:38.754Z,5.35
2022-11-30T00:08:06.881Z,6.18
2022-11-30T00:10:35.002Z,5.18
2022-11-30T00:13:02.677Z,6.18
2022-11-30T00:15:36.505Z,5.03
2022-11-30T00:18:04.278Z,5.35
2022-11-30T00:20:32.191Z,5.38
2022-11-30T00:23:00.427Z,4.80
2022-11-30T00:25:28.135Z,4.80
2022-11-30T00:27:55.735Z,5.53
2022-11-30T00:30:23.433Z,5.68
2022-11-30T00:32:51.104Z,5.38
2022-11-30T00:35:18.679Z,5.85
2022-11-30T00:37:46.307Z,5.22
2022-11-30T00:40:14.354Z,5.35
2022-11-30T00:42:42.254Z,5.15
2022-11-30T00:45:10.355Z,5.43
2022-11-30T00:47:39.776Z,5.45
2022-11-30T00:50:08.093Z,5.05
2022-11-30T00:52:35.930Z,5.47
2022-11-30T00:55:04.440Z,4.82
2022-11-30T00:57:33.044Z,4.85
2022-11-30T01:00:00.651Z,5.18
2022-11-30T01:02:28.702Z,5.65
2022-11-30T01:04:56.253Z,5.25
2022-11-30T01:07:24.132Z,4.90
2022-11-30T01:09:51.811Z,4.15
2022-11-30T01:12:19.439Z,4.55
2022-11-30T01:14:47.131Z,5.68
2022-11-30T01:17:14.930Z,5.78
2022-11-30T01:19:42.439Z,5.20
2022-11-30T01:22:10.162Z,4.85
2022-11-30T01:24:37.793Z,4.60
2022-11-30T01:27:05.331Z,4.68
2022-11-30T01:29:32.942Z,4.47
2022-11-30T01:32:01.360Z,4.68
2022-11-30T01:34:29.104Z,5.03
2022-11-30T01:36:56.789Z,4.90
2022-11-30T01:39:24.463Z,4.47
2022-11-30T01:41:53.781Z,4.65
2022-11-30T01:44:26.726Z,3.70
2022-11-30T01:47:00.170Z,4.65
2022-11-30T01:49:31.769Z,4.45
2022-11-30T01:52:17.058Z,4.82
2022-11-30T01:54:54.758Z,4.45
2022-11-30T01:57:27.578Z,3.42
2022-11-30T01:59:55.477Z,4.60
2022-11-30T02:02:53.159Z,4.03
2022-11-30T02:05:22.601Z,3.88
2022-11-30T02:07:50.359Z,3.72
2022-11-30T02:10:19.933Z,5.30
2022-11-30T02:12:59.633Z,4.13
2022-11-30T02:15:28.479Z,4.22
2022-11-30T02:18:09.909Z,4.22
2022-11-30T02:21:04.497Z,4.47
2022-11-30T02:23:49.610Z,4.53
2022-11-30T02:26:33.867Z,5.45
2022-11-30T02:29:06.521Z,4.10
2022-11-30T02:31:42.737Z,4.75
2022-11-30T02:34:10.967Z,4.97
2022-11-30T02:36:38.568Z,4.53
2022-11-30T02:39:06.714Z,4.75
2022-11-30T02:41:39.123Z,4.65
2022-11-30T02:44:07.440Z,4.32
2022-11-30T02:47:01.161Z,4.03
2022-11-30T02:49:37.643Z,4.22
2022-11-30T02:52:05.526Z,4.90
2022-11-30T02:54:34.043Z,4.45
2022-11-30T02:57:02.016Z,3.90
2022-11-30T02:59:29.680Z,4.40
2022-11-30T03:01:57.764Z,4.32
2022-11-30T03:04:44.222Z,3.83
2022-11-30T03:07:12.064Z,4.15
2022-11-30T03:09:39.819Z,4.45
2022-11-30T03:12:07.480Z,5.38
2022-11-30T03:14:35.061Z,4.45
2022-11-30T03:17:02.619Z,4.63
2022-11-30T03:19:30.609Z,4.70
2022-11-30T03:21:58.288Z,5.55
2022-11-30T03:24:26.001Z,5.18
2022-11-30T03:26:53.535Z,4.18
2022-11-30T03:29:22.318Z,4.78
2022-11-30T03:31:49.897Z,6.07
2022-11-30T03:34:17.501Z,6.60
2022-11-30T03:36:45.040Z,4.80
2022-11-30T03:39:12.748Z,5.18
2022-11-30T03:41:40.436Z,5.40
2022-11-30T03:44:07.973Z,5.05
2022-11-30T03:46:35.748Z,5.40
2022-11-30T03:49:04.356Z,4.47
2022-11-30T03:51:32.662Z,4.00
2022-11-30T03:54:00.243Z,4.88
2022-11-30T03:56:28.960Z,4.68
2022-11-30T03:58:56.534Z,4.38
2022-11-30T04:01:24.940Z,5.10
2022-11-30T04:03:52.831Z,4.25
2022-11-30T04:06:22.347Z,4.57
2022-11-30T04:08:50.431Z,4.32
2022-11-30T04:11:18.776Z,4.13
2022-11-30T04:13:46.374Z,4.95
2022-11-30T04:16:14.013Z,4.60
2022-11-30T04:18:41.590Z,5.13
2022-11-30T04:21:10.012Z,3.90
2022-11-30T04:23:39.012Z,3.97
2022-11-30T04:26:10.068Z,5.18
2022-11-30T04:28:38.865Z,5.28
2022-11-30T04:31:06.709Z,4.40
2022-11-30T04:33:34.466Z,5.05
2022-11-30T04:36:05.316Z,5.30
2022-11-30T04:38:33.143Z,5.25
2022-11-30T04:41:00.825Z,5.40
2022-11-30T04:43:28.922Z,5.07
2022-11-30T04:45:56.642Z,4.60
2022-11-30T04:48:24.523Z,4.95
2022-11-30T04:50:52.312Z,4.43
2022-11-30T04:53:19.914Z,5.07
2022-11-30T04:55:47.447Z,4.40
2022-11-30T04:58:15.413Z,5.47
2022-11-30T05:00:42.967Z,5.68
2022-11-30T05:03:10.660Z,5.15
2022-11-30T05:05:40.682Z,5.32
2022-11-30T05:08:09.479Z,5.05
2022-11-30T05:10:37.012Z,6.30
2022-11-30T05:13:04.646Z,7.50
2022-11-30T05:15:33.060Z,8.63
2022-11-30T05:18:01.443Z,7.20
2022-11-30T05:20:29.201Z,7.85
2022-11-30T05:22:56.742Z,6.35
2022-11-30T05:25:24.596Z,7.88
2022-11-30T05:27:52.272Z,6.63
2022-11-30T05:30:20.018Z,5.60
2022-11-30T05:32:50.130Z,5.80
2022-11-30T05:35:17.821Z,6.50
2022-11-30T05:37:46.823Z,4.88
2022-11-30T05:40:15.022Z,5.05
2022-11-30T05:42:42.596Z,4.20
2022-11-30T05:45:10.834Z,4.85
2022-11-30T05:47:39.097Z,4.32
2022-11-30T05:50:09.524Z,4.07
2022-11-30T05:52:39.366Z,4.05
2022-11-30T05:55:07.181Z,4.95
2022-11-30T05:57:38.962Z,4.43
2022-11-30T06:00:08.695Z,4.70
2022-11-30T06:02:42.347Z,4.85
2022-11-30T06:05:10.207Z,5.18
2022-11-30T06:41:20.090Z,3.83
2022-11-30T06:43:48.979Z,4.18
2022-11-30T06:46:16.752Z,4.38
2022-11-30T06:48:51.017Z,4.20
2022-11-30T06:51:20.760Z,4.68
2022-11-30T06:53:48.433Z,3.67
2022-11-30T06:56:16.224Z,4.28
2022-11-30T06:58:44.421Z,4.50
2022-11-30T07:01:14.758Z,3.65
2022-11-30T07:03:42.500Z,3.72
2022-11-30T07:06:14.781Z,4.13
2022-11-30T07:08:44.576Z,5.00
2022-11-30T07:11:12.357Z,3.70
2022-11-30T07:13:40.186Z,4.85
2022-11-30T07:16:09.158Z,4.45
2022-11-30T07:18:37.029Z,4.13
2022-11-30T07:21:05.503Z,5.32
2022-11-30T07:23:56.189Z,4.72
2022-11-30T07:28:55.466Z,6.13
2022-11-30T07:31:24.200Z,4.93
2022-11-30T07:33:52.675Z,4.55
2022-11-30T07:36:23.114Z,4.72
2022-11-30T07:38:51.610Z,4.47
2022-11-30T07:41:19.419Z,6.18
2022-11-30T07:43:47.077Z,4.90
2022-11-30T07:46:15.451Z,3.75
2022-11-30T07:48:43.519Z,4.68
2022-11-30T07:51:19.891Z,4.55
2022-11-30T07:53:47.945Z,3.95
2022-11-30T07:56:19.567Z,4.47
2022-11-30T07:58:48.071Z,4.03
2022-11-30T08:01:17.697Z,3.88
2022-11-30T08:03:45.647Z,4.43
2022-11-30T08:06:20.354Z,4.70
2022-11-30T08:08:49.039Z,4.70
2022-11-30T08:11:18.750Z,4.25
2022-11-30T08:13:46.359Z,3.85
2022-11-30T08:16:17.025Z,3.38
2022-11-30T08:18:44.728Z,3.22
2022-11-30T08:21:13.599Z,3.22
2022-11-30T08:23:42.729Z,4.43
2022-11-30T08:26:12.034Z,4.32
2022-11-30T08:28:40.461Z,3.80
2022-11-30T08:31:10.536Z,3.83
2022-11-30T08:33:38.266Z,4.63
2022-11-30T08:36:17.027Z,5.53
2022-11-30T08:38:45.226Z,3.58
2022-11-30T08:41:16.126Z,4.75
2022-11-30T08:43:44.378Z,4.65
2022-11-30T08:46:42.469Z,4.50
2022-11-30T08:49:20.253Z,4.95
2022-11-30T08:54:39.571Z,4.30
2022-11-30T08:57:07.114Z,3.63
2022-11-30T08:59:35.125Z,3.55
2022-11-30T09:02:02.866Z,3.25
2022-11-30T09:04:30.556Z,3.72
2022-11-30T09:06:59.411Z,3.20
2022-11-30T09:09:27.229Z,4.93
2022-11-30T09:11:55.885Z,3.30
2022-11-30T09:14:23.829Z,3.78
2022-11-30T09:16:52.044Z,3.10
2022-11-30T09:19:20.136Z,3.30
2022-11-30T09:21:51.921Z,3.90
2022-11-30T09:24:21.023Z,3.65
2022-11-30T09:26:48.725Z,4.05
2022-11-30T09:29:16.420Z,3.35
2022-11-30T09:32:34.013Z,3.05
2022-11-30T09:35:01.659Z,2.67
2022-11-30T09:37:29.528Z,4.32
2022-11-30T09:39:57.371Z,4.68
2022-11-30T09:42:45.029Z,3.47
2022-11-30T09:45:31.873Z,3.63
2022-11-30T09:48:23.778Z,3.83
2022-11-30T09:50:51.677Z,3.55
2022-11-30T09:53:29.781Z,3.88
2022-11-30T09:55:57.608Z,3.40
2022-11-30T09:58:36.554Z,4.30
2022-11-30T10:01:07.344Z,5.07
2022-11-30T10:03:35.292Z,4.30
2022-11-30T10:06:09.352Z,4.70
2022-11-30T10:08:52.274Z,3.92
2022-11-30T10:11:41.257Z,4.50
2022-11-30T10:14:30.101Z,4.60
2022-11-30T10:17:22.499Z,4.50
2022-11-30T10:19:59.277Z,4.43
2022-11-30T10:22:32.062Z,4.95
2022-11-30T10:25:17.869Z,4.18
2022-11-30T10:27:55.636Z,5.63
2022-11-30T10:30:34.241Z,3.80
2022-11-30T10:33:18.881Z,4.30
2022-11-30T10:36:03.366Z,3.72
2022-11-30T10:38:34.868Z,5.25
2022-11-30T10:41:12.442Z,4.10
2022-11-30T10:43:45.731Z,4.63
2022-11-30T10:46:39.535Z,4.40
2022-11-30T10:49:13.946Z,4.07
2022-11-30T10:52:01.046Z,3.47
2022-11-30T10:54:37.558Z,3.42
2022-11-30T10:57:05.739Z,4.28
2022-11-30T10:59:50.116Z,5.20
2022-11-30T11:02:33.341Z,3.55
2022-11-30T11:05:31.078Z,4.20
2022-11-30T11:08:19.149Z,4.40
2022-11-30T11:10:49.918Z,5.00
2022-11-30T11:13:35.678Z,3.55
2022-11-30T11:16:04.130Z,5.03
2022-11-30T11:18:33.062Z,5.72
2022-11-30T11:21:10.145Z,11.32
2022-11-30T11:23:38.656Z,6.35
2022-11-30T11:26:35.723Z,6.15
2022-11-30T11:29:03.749Z,4.53
2022-11-30T11:31:46.849Z,4.35
2022-11-30T11:34:24.878Z,4.25
2022-11-30T11:37:28.845Z,4.18
2022-11-30T11:40:03.699Z,4.22
2022-11-30T11:42:34.635Z,4.60
2022-11-30T11:45:02.735Z,5.32
2022-11-30T11:47:41.556Z,6.53
2022-11-30T11:50:12.676Z,5.90
2022-11-30T11:52:40.630Z,5.63
2022-11-30T11:55:34.576Z,5.47
2022-11-30T11:58:02.596Z,5.30
2022-11-30T12:00:30.430Z,5.05
2022-11-30T12:03:08.977Z,5.15
2022-11-30T12:05:47.467Z,4.63
2022-11-30T12:08:29.087Z,5.47
2022-11-30T12:11:20.475Z,6.78
2022-11-30T12:16:26.211Z,5.78
2022-11-30T12:19:15.809Z,5.38
2022-11-30T12:21:58.409Z,6.88
2022-11-30T12:24:34.696Z,6.50
2022-11-30T12:27:23.141Z,5.97
2022-11-30T12:29:56.852Z,7.00
2022-11-30T12:32:30.764Z,5.68
2022-11-30T12:35:17.492Z,5.97
2022-11-30T12:37:57.468Z,8.00
2022-11-30T12:40:39.054Z,8.18
2022-11-30T12:43:12.875Z,7.35
2022-11-30T12:45:42.747Z,7.75
2022-11-30T12:48:22.899Z,6.22
2022-11-30T12:51:32.364Z,5.97
2022-11-30T12:53:59.980Z,5.25
2022-11-30T12:56:49.235Z,5.85
2022-11-30T12:59:43.452Z,4.43
2022-11-30T13:02:32.861Z,5.63
2022-11-30T13:05:12.719Z,5.07
2022-11-30T13:07:44.138Z,5.85
2022-11-30T13:10:12.478Z,6.35
2022-11-30T13:12:43.932Z,7.60
2022-11-30T13:17:56.088Z,7.43
2022-11-30T13:20:42.875Z,6.82
2022-11-30T13:23:12.816Z,8.25
2022-11-30T13:26:07.756Z,4.95
2022-11-30T13:28:36.191Z,4.10
2022-11-30T13:31:24.022Z,4.78
2022-11-30T13:33:54.719Z,4.80
2022-11-30T13:36:27.857Z,2.60
2022-11-30T13:39:13.882Z,4.10
2022-11-30T13:41:42.050Z,5.05
2022-11-30T13:44:32.408Z,3.10
2022-11-30T13:47:01.655Z,3.70
2022-11-30T13:49:36.326Z,3.95
2022-11-30T13:54:57.483Z,4.93
2022-11-30T13:57:25.042Z,3.58
2022-11-30T13:59:56.687Z,3.58
2022-11-30T14:02:33.332Z,3.72
2022-11-30T14:05:19.046Z,3.67
2022-11-30T14:08:07.625Z,4.57
2022-11-30T14:10:35.318Z,4.15
2022-11-30T14:13:29.473Z,4.88
2022-11-30T14:16:00.648Z,3.65
2022-11-30T14:18:38.632Z,2.75
2022-11-30T14:21:28.926Z,5.80
2022-11-30T14:24:07.963Z,5.38
2022-11-30T14:26:37.559Z,4.35
2022-11-30T14:29:08.505Z,3.58
2022-11-30T14:32:03.368Z,4.78
2022-11-30T14:34:39.141Z,3.55
2022-11-30T14:37:15.205Z,4.78
2022-11-30T14:39:45.774Z,3.60
2022-11-30T14:42:23.336Z,3.30
2022-11-30T14:44:51.120Z,3.50
2022-11-30T14:47:25.895Z,3.70
2022-11-30T14:49:55.274Z,3.53
2022-11-30T14:52:56.527Z,2.75
2022-11-30T14:55:24.224Z,2.88
2022-11-30T14:57:59.477Z,4.50
2022-11-30T15:00:30.498Z,3.30
2022-11-30T15:02:58.038Z,3.95
2022-11-30T15:05:28.301Z,4.78
2022-11-30T15:07:56.133Z,3.20
2022-11-30T15:10:29.922Z,4.20
2022-11-30T15:12:58.763Z,4.45
2022-11-30T15:15:27.967Z,5.10
2022-11-30T15:18:16.465Z,5.35
2022-11-30T15:20:45.037Z,4.65
2022-11-30T15:23:13.588Z,5.10
2022-11-30T15:25:51.237Z,4.90
2022-11-30T15:28:25.359Z,3.80
2022-11-30T15:30:55.023Z,5.97
2022-11-30T15:33:23.661Z,5.03
2022-11-30T15:38:43.269Z,3.72
2022-11-30T15:41:17.854Z,4.53
2022-11-30T15:43:51.946Z,4.50
2022-11-30T15:46:39.768Z,4.65
2022-11-30T15:49:24.877Z,3.90
2022-11-30T15:52:09.280Z,4.25
2022-11-30T15:54:56.045Z,4.07
2022-11-30T15:57:24.651Z,4.25
2022-11-30T16:00:14.008Z,4.45
2022-11-30T16:02:41.984Z,4.60
2022-11-30T16:05:14.734Z,3.63
2022-11-30T16:07:57.487Z,4.97
2022-11-30T16:10:26.819Z,4.82
2022-11-30T16:12:54.900Z,5.15
2022-11-30T16:15:27.601Z,4.63
2022-11-30T16:18:07.774Z,3.90
2022-11-30T16:20:35.476Z,5.03
2022-11-30T16:23:05.983Z,4.70
2022-11-30T16:25:33.973Z,5.07
2022-11-30T16:28:02.841Z,5.75
2022-11-30T16:30:30.762Z,4.57
2022-11-30T16:32:58.360Z,4.82
2022-11-30T16:36:17.349Z,4.68
2022-11-30T16:38:48.658Z,6.25
2022-11-30T16:41:21.107Z,5.18
2022-11-30T16:43:50.997Z,6.15
2022-11-30T16:46:23.187Z,5.63
2022-11-30T16:48:51.014Z,5.28
2022-11-30T16:51:24.097Z,4.57
2022-11-30T16:53:51.903Z,5.13
2022-11-30T16:56:19.661Z,5.53
2022-11-30T16:58:47.591Z,5.53
2022-11-30T17:01:21.816Z,5.50
2022-11-30T17:03:50.447Z,5.03
2022-11-30T17:06:22.137Z,5.53
2022-11-30T17:08:51.289Z,4.68
2022-11-30T17:11:29.617Z,4.68
2022-11-30T17:13:57.367Z,5.32
2022-11-30T17:16:25.045Z,4.75
2022-11-30T17:18:52.741Z,4.55
2022-11-30T17:21:23.883Z,5.03
2022-11-30T17:23:51.528Z,4.43
2022-11-30T19:19:21.770Z,7.05
2022-11-30T19:21:49.600Z,6.18
2022-11-30T19:24:17.271Z,6.53
2022-11-30T19:26:45.242Z,6.05
2022-11-30T19:29:12.910Z,5.93
2022-11-30T19:31:40.709Z,6.60
2022-11-30T19:34:12.506Z,6.55
2022-11-30T19:36:40.986Z,7.15
2022-11-30T19:39:09.867Z,6.78
2022-11-30T19:41:37.518Z,6.88
2022-11-30T19:44:05.268Z,6.68
2022-11-30T19:46:34.806Z,7.43
2022-11-30T19:49:02.702Z,6.80
2022-11-30T19:51:30.767Z,7.88
2022-11-30T19:54:01.141Z,8.48
2022-11-30T19:56:30.039Z,6.47
2022-11-30T19:59:04.167Z,6.88
2022-11-30T20:01:33.312Z,7.72
2022-11-30T20:04:01.107Z,7.63
2022-11-30T20:06:30.466Z,7.97
2022-11-30T20:08:58.281Z,7.68
2022-11-30T20:11:26.584Z,7.32
2022-11-30T20:13:54.227Z,6.57
2022-11-30T20:16:24.307Z,6.05
2022-11-30T20:19:00.980Z,6.15
2022-11-30T20:21:30.863Z,6.85
2022-11-30T20:24:00.153Z,5.32
2022-11-30T20:26:30.321Z,6.20
2022-11-30T20:28:59.118Z,5.72
2022-11-30T20:31:28.010Z,5.38
2022-11-30T20:33:55.615Z,5.63
2022-11-30T20:36:23.235Z,6.07
2022-11-30T20:38:50.788Z,5.47
2022-11-30T20:41:20.629Z,5.55
2022-11-30T20:43:48.231Z,4.30
2022-11-30T20:46:17.445Z,5.15
2022-11-30T20:48:45.185Z,5.25
2022-11-30T20:51:30.166Z,4.97
2022-11-30T20:54:03.883Z,5.05
2022-11-30T20:56:31.923Z,4.90
2022-11-30T20:59:03.181Z,5.80
2022-11-30T21:01:30.876Z,6.35
2022-11-30T21:04:00.926Z,6.30
2022-11-30T21:06:29.630Z,4.20
2022-11-30T21:08:57.576Z,5.43
2022-11-30T21:11:25.477Z,4.68
2022-11-30T21:13:53.519Z,4.95
2022-11-30T21:16:27.211Z,5.00
2022-11-30T21:18:56.304Z,5.40
2022-11-30T21:21:24.801Z,4.68
2022-11-30T21:23:52.545Z,4.38
2022-11-30T21:26:33.322Z,4.88
2022-11-30T21:29:03.514Z,3.30
2022-11-30T21:31:56.635Z,4.68
2022-11-30T21:34:25.471Z,4.70
2022-11-30T21:36:53.126Z,4.35
2022-11-30T21:39:21.245Z,4.10
2022-11-30T21:41:48.840Z,3.95
2022-11-30T21:44:16.919Z,4.22
2022-11-30T21:46:45.839Z,3.85
2022-11-30T21:49:14.462Z,4.03
2022-11-30T21:51:44.207Z,2.88
2022-11-30T21:54:12.353Z,4.15
2022-11-30T21:56:40.891Z,4.32
2022-11-30T21:59:08.893Z,3.88
2022-11-30T22:01:41.776Z,4.38
2022-11-30T22:04:10.263Z,5.15
2022-11-30T22:06:38.516Z,4.80
2022-11-30T22:09:08.173Z,3.97
2022-11-30T22:11:39.066Z,4.82
2022-11-30T22:14:07.493Z,3.25
2022-11-30T22:16:36.496Z,4.30
2022-11-30T22:19:05.593Z,4.50
2022-11-30T22:21:33.241Z,3.63
2022-11-30T22:24:05.521Z,3.72
2022-11-30T22:26:43.589Z,4.43
2022-11-30T22:29:19.375Z,4.00
2022-11-30T22:31:48.805Z,4.20
2022-11-30T22:34:18.221Z,4.63
2022-11-30T22:36:46.055Z,4.78
2022-11-30T22:39:19.466Z,4.53
2022-11-30T22:41:54.273Z,5.75
2022-11-30T22:44:22.675Z,4.88
2022-11-30T22:46:50.380Z,4.30
2022-11-30T22:49:21.284Z,5.22
2022-11-30T22:54:17.303Z,4.93
2022-11-30T22:56:46.689Z,4.85
